Time;durP1;ratioP1;P1;durP2;ratioP2;P2;SDS_P1;SDS_P2;PMS_P1;PMS_P2;Temp;Humidity;BMP_temperature;BMP_pressure;BME280_temperature;BME280_humidity;BME280_pressure;Samples;Min_cycle;Max_cycle;Signal;HPM_P1;HPM_P2
2021/01/06 00:01:21;;;;;;;27.07;16.67;;;3.90;96.70;;;;;;5093379;27;20043;-82
2021/01/06 00:03:49;;;;;;;30.03;17.83;;;4.00;96.60;;;;;;5095327;27;20035;-81
2021/01/06 00:06:23;;;;;;;30.90;19.03;;;3.90;96.60;;;;;;5102805;27;20039;-81
2021/01/06 00:08:49;;;;;;;29.35;19.05;;;3.90;96.60;;;;;;5110667;27;20046;-81
2021/01/06 00:11:17;;;;;;;29.97;17.77;;;3.90;96.60;;;;;;5129646;27;20043;-81
2021/01/06 00:13:45;;;;;;;29.83;18.30;;;3.90;96.70;;;;;;5112400;27;21228;-81
2021/01/06 00:16:12;;;;;;;41.77;22.97;;;3.90;96.70;;;;;;5129275;27;20035;-81
2021/01/06 00:18:39;;;;;;;45.70;22.53;;;3.90;97.10;;;;;;5093831;27;20035;-80
2021/01/06 00:21:06;;;;;;;33.03;19.17;;;3.80;96.80;;;;;;5111553;27;20496;-80
2021/01/06 00:23:33;;;;;;;37.17;20.70;;;3.90;96.90;;;;;;5112393;27;20034;-80
2021/01/06 00:26:00;;;;;;;33.73;18.53;;;3.80;96.90;;;;;;5112124;27;20049;-80
2021/01/06 00:28:26;;;;;;;41.40;22.57;;;3.80;96.90;;;;;;5072970;27;20043;-80
2021/01/06 00:30:57;;;;;;;33.60;19.50;;;3.80;96.90;;;;;;5111547;27;20112;-80
2021/01/06 00:33:26;;;;;;;31.33;18.70;;;3.90;96.90;;;;;;5110627;27;20486;-80
2021/01/06 00:35:56;;;;;;;34.33;19.80;;;3.80;96.90;;;;;;5128607;27;20035;-80
2021/01/06 00:38:24;;;;;;;37.87;20.00;;;3.90;97.00;;;;;;5128342;27;20098;-80
2021/01/06 00:40:51;;;;;;;35.07;19.40;;;3.80;97.00;;;;;;5127991;27;20031;-81
2021/01/06 00:43:17;;;;;;;35.47;19.27;;;3.90;97.00;;;;;;5128744;27;20055;-79
2021/01/06 00:45:47;;;;;;;32.10;18.17;;;3.90;97.00;;;;;;5129481;27;20035;-80
2021/01/06 00:48:15;;;;;;;29.90;17.90;;;3.90;97.00;;;;;;5094274;27;20043;-80
2021/01/06 00:50:42;;;;;;;36.43;19.43;;;3.80;96.90;;;;;;5110092;27;20050;-80
2021/01/06 00:53:23;;;;;;;33.23;19.67;;;3.80;97.10;;;;;;5091035;27;20513;-80
2021/01/06 00:55:55;;;;;;;32.77;19.70;;;3.80;96.90;;;;;;5091186;27;20031;-79
2021/01/06 00:58:23;;;;;;;38.77;19.93;;;3.80;96.90;;;;;;5077680;27;20031;-79
2021/01/06 01:00:53;;;;;;;31.53;19.00;;;3.80;96.90;;;;;;5088328;27;20039;-79
2021/01/06 01:03:20;;;;;;;33.60;18.93;;;3.80;96.90;;;;;;5090331;27;20031;-80
2021/01/06 01:05:51;;;;;;;34.63;18.63;;;3.80;96.90;;;;;;5109163;27;20039;-80
2021/01/06 01:08:18;;;;;;;33.83;18.67;;;3.80;96.90;;;;;;5129057;27;20047;-80
2021/01/06 01:10:47;;;;;;;29.40;18.17;;;3.80;96.80;;;;;;5104501;27;20046;-80
2021/01/06 01:13:20;;;;;;;34.60;19.03;;;3.80;96.80;;;;;;5105388;27;20034;-80
2021/01/06 01:15:48;;;;;;;36.85;19.42;;;3.80;96.80;;;;;;5126569;27;20054;-80
2021/01/06 01:18:21;;;;;;;35.93;20.60;;;3.80;96.80;;;;;;5092501;27;20795;-79
2021/01/06 01:20:52;;;;;;;;;;;3.80;96.80;;;;;;5128675;27;20039;-79
2021/01/06 01:23:19;;;;;;;34.57;18.23;;;3.80;96.80;;;;;;5110593;27;19940;-79
2021/01/06 01:25:47;;;;;;;29.27;17.27;;;3.80;96.80;;;;;;5110198;27;20408;-79
2021/01/06 01:28:15;;;;;;;28.33;16.53;;;3.80;96.80;;;;;;5110073;27;20043;-79
2021/01/06 01:30:42;;;;;;;29.50;17.67;;;3.80;96.80;;;;;;5127722;27;20042;-79
2021/01/06 01:33:17;;;;;;;28.77;16.20;;;3.80;96.80;;;;;;5128307;27;20043;-80
2021/01/06 01:35:44;;;;;;;23.67;15.57;;;3.80;96.80;;;;;;5127840;27;20047;-81
2021/01/06 01:38:16;;;;;;;25.07;16.00;;;3.80;96.80;;;;;;5108442;27;20054;-80
2021/01/06 01:40:43;;;;;;;30.23;14.80;;;3.80;96.80;;;;;;5093469;27;20039;-79
2021/01/06 01:43:12;;;;;;;24.47;15.10;;;3.80;96.80;;;;;;5069745;27;20050;-79
2021/01/06 01:45:45;;;;;;;32.07;17.73;;;3.80;96.80;;;;;;5110305;27;20383;-79
2021/01/06 01:48:23;;;;;;;27.08;16.88;;;3.80;96.80;;;;;;5108433;27;20404;-79
2021/01/06 01:50:51;;;;;;;28.87;15.87;;;3.80;96.70;;;;;;5109332;27;20058;-79
2021/01/06 01:53:24;;;;;;;25.67;16.50;;;3.80;96.70;;;;;;5128828;27;20489;-79
2021/01/06 01:55:51;;;;;;;25.02;15.80;;;3.80;96.70;;;;;;5128590;27;20031;-80
2021/01/06 01:58:26;;;;;;;26.67;15.53;;;3.80;96.70;;;;;;5108147;27;20074;-80
2021/01/06 02:00:55;;;;;;;23.03;15.87;;;3.80;96.60;;;;;;5109201;27;20512;-80
2021/01/06 02:03:27;;;;;;;26.80;16.67;;;3.80;96.50;;;;;;5109263;27;20050;-79
2021/01/06 02:06:01;;;;;;;24.37;15.87;;;3.80;96.50;;;;;;5110076;27;20389;-80
2021/01/06 02:08:33;;;;;;;20.27;13.70;;;3.80;96.50;;;;;;5108030;27;20035;-79
2021/01/06 02:11:16;;;;;;;27.13;15.67;;;3.80;96.40;;;;;;5127759;27;20054;-79
2021/01/06 02:13:53;;;;;;;24.13;16.15;;;3.70;96.40;;;;;;5109453;27;20047;-80
2021/01/06 02:16:33;;;;;;;24.67;16.27;;;3.80;96.30;;;;;;5128076;27;20382;-80
2021/01/06 02:19:00;;;;;;;20.37;13.90;;;3.70;96.20;;;;;;5106777;27;20039;-79
2021/01/06 02:21:28;;;;;;;29.37;18.57;;;3.70;96.20;;;;;;5125868;27;20048;-79
2021/01/06 02:23:58;;;;;;;22.37;15.37;;;3.70;96.10;;;;;;5109029;27;20038;-80
2021/01/06 02:26:26;;;;;;;22.90;14.90;;;3.70;96.10;;;;;;5108316;27;20058;-79
2021/01/06 02:28:55;;;;;;;20.10;13.97;;;3.70;96.20;;;;;;5086464;27;20046;-79
2021/01/06 02:31:22;;;;;;;27.80;16.57;;;3.70;96.20;;;;;;5108159;27;20417;-80
2021/01/06 02:33:50;;;;;;;23.00;16.00;;;3.70;96.20;;;;;;5128057;27;20047;-80
2021/01/06 02:36:19;;;;;;;20.30;14.80;;;3.70;96.10;;;;;;5127677;27;20394;-79
2021/01/06 02:38:46;;;;;;;26.00;17.50;;;3.70;96.10;;;;;;5091069;27;20046;-80
2021/01/06 02:41:14;;;;;;;25.13;16.50;;;3.70;96.00;;;;;;5127871;27;20035;-79
2021/01/06 02:43:42;;;;;;;23.07;15.67;;;3.70;96.00;;;;;;5092697;27;20035;-80
2021/01/06 02:46:09;;;;;;;23.73;16.00;;;3.70;96.00;;;;;;5108606;27;20051;-79
2021/01/06 02:48:37;;;;;;;21.87;13.87;;;3.70;96.10;;;;;;5125797;27;20039;-79
2021/01/06 02:51:19;;;;;;;21.07;14.17;;;3.70;96.10;;;;;;5107593;27;20367;-79
2021/01/06 02:53:53;;;;;;;26.33;17.27;;;3.70;96.10;;;;;;5107751;28;20031;-79
2021/01/06 02:56:20;;;;;;;22.90;16.33;;;3.70;96.00;;;;;;5107645;27;20473;-79
2021/01/06 02:58:49;;;;;;;25.27;15.43;;;3.60;96.00;;;;;;5107671;27;20042;-81
2021/01/06 03:01:21;;;;;;;20.27;14.73;;;3.60;96.00;;;;;;5127170;27;20031;-79
2021/01/06 03:03:50;;;;;;;25.65;15.32;;;3.70;96.10;;;;;;5107799;27;20047;-79
2021/01/06 03:06:36;;;;;;;20.17;13.93;;;3.70;96.10;;;;;;5125805;27;20113;-79
2021/01/06 03:09:08;;;;;;;21.20;15.03;;;3.70;96.00;;;;;;5107295;27;20039;-79
2021/01/06 03:11:34;;;;;;;26.13;16.65;;;3.70;96.00;;;;;;5108224;27;20050;-79
2021/01/06 03:14:01;;;;;;;19.57;14.20;;;3.60;95.90;;;;;;5092231;27;20043;-79
2021/01/06 03:16:27;;;;;;;22.33;15.67;;;3.60;95.90;;;;;;5107785;27;20082;-79
2021/01/06 03:18:55;;;;;;;20.07;14.53;;;3.70;96.00;;;;;;5089796;28;20050;-79
2021/01/06 03:21:23;;;;;;;29.57;17.73;;;3.60;95.90;;;;;;5106777;28;20043;-79
2021/01/06 03:23:53;;;;;;;23.83;16.07;;;3.70;96.00;;;;;;5092700;28;20481;-79
2021/01/06 03:26:24;;;;;;;24.80;16.03;;;3.60;95.70;;;;;;5092066;28;20035;-79
2021/01/06 03:28:52;;;;;;;23.90;14.77;;;3.60;95.70;;;;;;5106860;28;20043;-79
2021/01/06 03:31:27;;;;;;;23.60;15.47;;;3.60;95.70;;;;;;5107942;28;20060;-79
2021/01/06 03:33:58;;;;;;;21.23;15.97;;;3.60;95.80;;;;;;5091344;28;20027;-79
2021/01/06 03:36:30;;;;;;;20.30;15.40;;;3.60;95.70;;;;;;5101428;28;20035;-79
2021/01/06 03:39:05;;;;;;;26.27;17.23;;;3.60;95.80;;;;;;5123834;28;20035;-80
2021/01/06 03:41:33;;;;;;;24.70;16.23;;;3.60;95.70;;;;;;5090645;28;20035;-79
2021/01/06 03:44:06;;;;;;;22.27;16.07;;;3.60;95.70;;;;;;5089674;28;20028;-79
2021/01/06 03:46:53;;;;;;;22.17;15.70;;;3.50;95.90;;;;;;5123526;28;20046;-79
2021/01/06 03:49:44;;;;;;;21.90;14.80;;;3.50;95.70;;;;;;5123097;28;20035;-79
2021/01/06 03:52:37;;;;;;;20.77;13.87;;;3.50;95.70;;;;;;5108700;28;20022;-79
2021/01/06 03:55:34;;;;;;;22.17;14.63;;;3.60;95.70;;;;;;5070800;28;20046;-78
2021/01/06 03:58:03;;;;;;;23.87;14.97;;;3.50;95.70;;;;;;5108371;28;20051;-79
2021/01/06 04:00:51;;;;;;;25.90;15.70;;;3.50;95.70;;;;;;5107212;28;20035;-80
2021/01/06 04:03:46;;;;;;;22.57;15.30;;;3.60;95.80;;;;;;5090251;28;20043;-79
2021/01/06 04:06:14;;;;;;;25.07;16.93;;;3.60;95.60;;;;;;5092669;28;20052;-79
2021/01/06 04:08:49;;;;;;;24.50;16.23;;;3.50;95.50;;;;;;5071938;28;20047;-78
2021/01/06 04:11:21;;;;;;;27.07;15.57;;;3.50;95.50;;;;;;5105637;28;20047;-79
2021/01/06 04:13:47;;;;;;;26.33;17.90;;;3.50;95.50;;;;;;5091484;28;20039;-79
2021/01/06 04:16:14;;;;;;;24.83;16.80;;;3.50;95.40;;;;;;5089793;28;20506;-79
2021/01/06 04:18:43;;;;;;;26.00;17.60;;;3.50;95.40;;;;;;5086840;28;20514;-79
2021/01/06 04:21:11;;;;;;;23.87;16.13;;;3.50;95.50;;;;;;5106618;28;20039;-79
2021/01/06 04:23:39;;;;;;;24.57;15.80;;;3.40;95.40;;;;;;5108465;28;20405;-79
2021/01/06 04:26:05;;;;;;;21.70;16.00;;;3.40;95.40;;;;;;5091796;28;20031;-79
2021/01/06 04:28:36;;;;;;;23.70;16.47;;;3.40;95.30;;;;;;5129063;27;20051;-79
2021/01/06 04:31:09;;;;;;;26.00;16.10;;;3.40;95.40;;;;;;5078206;27;20379;-79
2021/01/06 04:33:37;;;;;;;;;;;3.40;95.40;;;;;;5111571;27;20034;-79
2021/01/06 04:36:14;;;;;;;24.40;16.23;;;3.40;95.40;;;;;;5130576;27;19915;-78
2021/01/06 04:38:46;;;;;;;21.27;15.70;;;3.40;95.50;;;;;;5110897;27;20050;-79
2021/01/06 04:41:16;;;;;;;22.30;16.08;;;3.30;95.50;;;;;;5128929;27;20062;-79
2021/01/06 04:44:07;;;;;;;27.50;16.70;;;3.30;95.60;;;;;;5079388;27;20069;-79
2021/01/06 04:46:52;;;;;;;23.40;17.23;;;3.30;95.60;;;;;;5112948;27;20031;-79
2021/01/06 04:49:51;;;;;;;23.90;16.37;;;3.20;95.60;;;;;;5129380;27;20047;-80
2021/01/06 04:52:50;;;;;;;27.13;16.43;;;3.20;95.70;;;;;;5131213;27;20046;-79
2021/01/06 04:55:50;;;;;;;27.40;17.60;;;3.10;95.80;;;;;;5130022;27;20043;-79
2021/01/06 04:58:36;;;;;;;24.53;15.47;;;3.20;95.90;;;;;;5110109;27;20043;-79
2021/01/06 05:01:31;;;;;;;26.10;16.73;;;3.10;95.90;;;;;;5110709;27;20039;-79
2021/01/06 05:04:30;;;;;;;23.13;15.77;;;3.10;96.00;;;;;;5095430;27;20055;-79
2021/01/06 05:07:19;;;;;;;24.47;16.50;;;3.10;96.00;;;;;;5087696;27;20031;-79
2021/01/06 05:10:04;;;;;;;26.37;17.23;;;3.00;96.00;;;;;;5107979;27;20046;-79
2021/01/06 05:12:38;;;;;;;29.83;18.43;;;3.10;96.10;;;;;;5092729;27;20058;-79
2021/01/06 05:15:13;;;;;;;25.27;16.60;;;3.10;96.10;;;;;;5129217;27;20497;-79
2021/01/06 05:17:41;;;;;;;27.57;17.17;;;3.10;96.10;;;;;;5110923;27;20501;-79
2021/01/06 05:20:09;;;;;;;26.50;17.07;;;3.10;96.10;;;;;;5092549;27;20054;-79
2021/01/06 05:22:36;;;;;;;26.03;14.80;;;3.10;96.10;;;;;;5093123;27;20035;-79
2021/01/06 05:25:03;;;;;;;27.23;17.23;;;3.10;96.20;;;;;;5094247;27;20046;-78
2021/01/06 05:27:38;;;;;;;27.93;15.00;;;3.10;96.10;;;;;;5109219;27;20401;-79
2021/01/06 05:30:26;;;;;;;21.77;14.63;;;3.10;96.00;;;;;;5090331;27;20034;-79
2021/01/06 05:33:04;;;;;;;23.30;15.30;;;3.10;96.00;;;;;;5129049;27;20030;-79
2021/01/06 05:35:37;;;;;;;20.40;13.73;;;3.00;96.00;;;;;;5129234;27;20488;-79
2021/01/06 05:38:04;;;;;;;22.00;13.90;;;3.00;96.00;;;;;;5091480;27;20035;-80
2021/01/06 05:40:33;;;;;;;22.23;13.50;;;3.00;96.00;;;;;;5092461;27;20035;-79
2021/01/06 05:43:20;;;;;;;18.27;13.07;;;3.00;96.00;;;;;;5110948;27;20042;-79
2021/01/06 05:45:54;;;;;;;20.03;12.60;;;3.00;96.00;;;;;;5128230;27;20043;-79
2021/01/06 05:48:27;;;;;;;21.93;13.13;;;3.00;96.10;;;;;;5109235;27;20035;-80
2021/01/06 05:51:08;;;;;;;;;;;3.00;96.00;;;;;;5129119;27;20052;-80
2021/01/06 05:53:35;;;;;;;19.63;12.00;;;3.00;96.00;;;;;;5109704;27;19911;-79
2021/01/06 05:56:31;;;;;;;18.20;12.57;;;2.90;95.90;;;;;;5110799;27;20035;-79
2021/01/06 05:59:23;;;;;;;20.27;12.03;;;2.90;95.90;;;;;;5104694;27;20062;-79
2021/01/06 06:02:20;;;;;;;17.27;11.95;;;2.80;95.90;;;;;;5052541;27;20398;-79
2021/01/06 06:05:13;;;;;;;20.90;13.50;;;2.80;95.90;;;;;;5090428;27;20054;-80
2021/01/06 06:08:05;;;;;;;20.35;10.55;;;2.80;95.90;;;;;;5127721;27;20047;-79
2021/01/06 06:10:40;;;;;;;16.33;10.43;;;2.70;95.90;;;;;;5108380;27;20039;-79
2021/01/06 06:13:33;;;;;;;18.10;11.53;;;2.60;95.90;;;;;;5127584;27;20043;-80
2021/01/06 06:16:25;;;;;;;18.92;12.45;;;2.60;96.00;;;;;;5109761;27;20046;-80
2021/01/06 06:19:15;;;;;;;16.17;11.23;;;2.60;96.00;;;;;;5090370;27;20050;-79
2021/01/06 06:22:07;;;;;;;16.53;10.77;;;2.60;96.10;;;;;;5109682;27;20031;-79
2021/01/06 06:24:45;;;;;;;17.13;11.60;;;2.60;96.10;;;;;;5126553;27;20050;-79
2021/01/06 06:27:26;;;;;;;19.33;13.17;;;2.60;96.10;;;;;;5126921;27;20043;-79
2021/01/06 06:30:10;;;;;;;16.40;12.10;;;2.60;96.00;;;;;;5125442;27;20046;-79
2021/01/06 06:32:40;;;;;;;16.87;11.87;;;2.60;96.00;;;;;;5092383;27;20034;-79
2021/01/06 06:35:17;;;;;;;15.87;10.30;;;2.60;96.00;;;;;;5109348;27;20505;-79
2021/01/06 06:37:49;;;;;;;19.97;11.03;;;2.60;96.00;;;;;;5109541;27;20039;-79
2021/01/06 06:40:16;;;;;;;17.50;10.27;;;2.60;96.30;;;;;;5125333;27;20046;-79
2021/01/06 06:42:47;;;;;;;16.37;11.70;;;2.50;96.00;;;;;;5090363;27;20039;-79
2021/01/06 06:45:42;;;;;;;18.00;12.23;;;2.50;96.00;;;;;;5106379;27;20042;-74
2021/01/06 06:48:38;;;;;;;17.07;10.90;;;2.40;96.00;;;;;;5122474;27;20043;-74
2021/01/06 06:51:19;;;;;;;20.03;12.97;;;2.40;96.10;;;;;;5086060;27;20039;-74
2021/01/06 06:53:54;;;;;;;15.77;10.97;;;2.40;96.10;;;;;;5122299;27;20477;-74
2021/01/06 06:56:28;;;;;;;17.53;10.83;;;2.30;96.10;;;;;;5087394;27;20050;-74
2021/01/06 06:59:07;;;;;;;18.27;10.63;;;2.40;96.10;;;;;;5070469;27;20405;-74
2021/01/06 07:01:41;;;;;;;16.30;10.30;;;2.30;96.00;;;;;;5123026;27;20027;-74
2021/01/06 07:04:20;;;;;;;20.30;11.83;;;2.30;96.10;;;;;;5087584;27;20031;-74
2021/01/06 07:06:53;;;;;;;15.87;10.30;;;2.30;96.10;;;;;;5087247;27;20505;-74
2021/01/06 07:09:28;;;;;;;14.60;9.67;;;2.30;96.20;;;;;;5103419;27;20058;-74
2021/01/06 07:12:05;;;;;;;18.33;10.50;;;2.30;96.20;;;;;;5106273;27;20502;-74
2021/01/06 07:14:47;;;;;;;14.27;9.23;;;2.30;96.30;;;;;;5072529;27;20486;-74
2021/01/06 07:17:27;;;;;;;12.30;8.43;;;2.40;96.30;;;;;;5106285;27;20042;-74
2021/01/06 07:20:00;;;;;;;16.97;9.87;;;2.50;96.30;;;;;;5122141;27;20094;-74
2021/01/06 07:22:43;;;;;;;15.80;9.90;;;2.50;96.20;;;;;;5089182;28;20042;-74
2021/01/06 07:25:19;;;;;;;16.67;10.60;;;2.60;96.10;;;;;;5104646;28;20043;-73
2021/01/06 07:27:57;;;;;;;19.27;11.10;;;2.60;96.10;;;;;;5088413;28;20477;-74
2021/01/06 07:30:34;;;;;;;15.57;9.67;;;2.70;96.00;;;;;;5086544;28;20035;-75
2021/01/06 07:33:44;;;;;;;16.83;9.90;;;2.70;96.00;;;;;;5087115;28;20032;-74
2021/01/06 07:36:18;;;;;;;19.87;12.87;;;2.70;95.90;;;;;;5117155;28;20039;-74
2021/01/06 07:38:47;;;;;;;18.93;11.97;;;2.80;95.90;;;;;;5115151;28;20051;-73
2021/01/06 07:41:14;;;;;;;21.43;11.27;;;2.80;95.80;;;;;;5101930;28;20481;-73
2021/01/06 07:44:01;;;;;;;61.37;38.10;;;2.80;95.80;;;;;;5087378;28;20607;-73
2021/01/06 07:46:36;;;;;;;30.60;17.03;;;2.80;95.80;;;;;;5082420;28;20042;-72
2021/01/06 07:49:12;;;;;;;22.00;13.67;;;2.80;95.80;;;;;;5118719;28;20039;-73
2021/01/06 07:52:05;;;;;;;20.33;12.43;;;2.80;95.70;;;;;;5087025;28;20043;-73
2021/01/06 07:54:40;;;;;;;20.40;12.47;;;2.90;95.70;;;;;;5103508;28;20485;-74
2021/01/06 07:57:12;;;;;;;19.27;12.27;;;2.90;95.70;;;;;;5102761;28;20027;-73
2021/01/06 07:59:52;;;;;;;20.90;12.73;;;2.90;95.70;;;;;;5097917;28;20406;-74
2021/01/06 08:02:33;;;;;;;20.73;10.70;;;2.90;95.60;;;;;;5120609;27;20023;-74
2021/01/06 08:05:18;;;;;;;16.33;10.73;;;2.90;95.60;;;;;;5105733;27;20035;-74
2021/01/06 08:07:45;;;;;;;20.57;13.03;;;3.00;95.70;;;;;;5120897;27;20048;-73
2021/01/06 08:10:28;;;;;;;19.80;11.83;;;3.00;95.60;;;;;;5087192;27;20031;-74
2021/01/06 08:13:10;;;;;;;16.52;11.00;;;3.00;95.60;;;;;;5121841;27;20051;-73
2021/01/06 08:15:38;;;;;;;14.82;10.65;;;3.00;95.60;;;;;;5124339;27;20050;-74
2021/01/06 08:18:33;;;;;;;16.23;10.40;;;3.00;95.60;;;;;;5085061;27;20034;-74
2021/01/06 08:21:07;;;;;;;31.23;19.67;;;3.10;95.60;;;;;;5124157;27;20042;-74
2021/01/06 08:23:59;;;;;;;42.20;23.70;;;3.10;95.60;;;;;;5122702;27;20042;-74
2021/01/06 08:26:28;;;;;;;22.97;15.40;;;3.10;95.50;;;;;;5124987;27;20043;-73
2021/01/06 08:29:08;;;;;;;21.47;13.33;;;3.10;95.40;;;;;;5104688;27;20288;-73
2021/01/06 08:31:37;;;;;;;20.07;13.53;;;3.10;95.30;;;;;;5086742;27;20035;-72
2021/01/06 08:34:05;;;;;;;18.83;12.77;;;3.10;95.10;;;;;;5108312;27;20039;-73
2021/01/06 08:36:38;;;;;;;18.40;10.90;;;3.00;95.10;;;;;;5108417;27;20039;-75
2021/01/06 08:39:06;;;;;;;19.23;13.00;;;3.00;95.30;;;;;;5089703;27;20051;-73
2021/01/06 08:41:33;;;;;;;20.70;12.17;;;3.00;95.00;;;;;;5101735;27;20031;-73
2021/01/06 08:44:00;;;;;;;17.23;11.87;;;3.00;95.10;;;;;;5104625;27;20042;-73
2021/01/06 08:46:32;;;;;;;17.77;12.17;;;3.00;94.90;;;;;;5089138;27;20031;-73
2021/01/06 08:49:18;;;;;;;18.93;12.67;;;3.00;95.10;;;;;;5103315;27;20046;-73
2021/01/06 08:51:46;;;;;;;15.87;11.33;;;3.00;94.60;;;;;;5107170;27;20043;-74
2021/01/06 08:54:32;;;;;;;16.47;11.20;;;3.00;94.70;;;;;;5105897;27;20047;-73
2021/01/06 08:57:03;;;;;;;14.57;10.90;;;3.10;94.80;;;;;;5091864;27;20039;-74
2021/01/06 08:59:34;;;;;;;16.47;11.87;;;3.10;94.70;;;;;;5106368;27;20027;-74
2021/01/06 09:02:03;;;;;;;15.27;11.40;;;3.10;94.50;;;;;;5101157;27;20405;-75
2021/01/06 09:04:43;;;;;;;17.83;11.70;;;3.10;94.50;;;;;;5097688;27;20038;-74
2021/01/06 09:07:16;;;;;;;23.10;15.63;;;3.10;94.40;;;;;;5101850;27;20043;-73
2021/01/06 09:10:13;;;;;;;20.97;13.60;;;3.10;94.30;;;;;;5088148;27;20394;-73
2021/01/06 09:12:56;;;;;;;19.70;12.07;;;3.10;94.00;;;;;;5101943;28;20051;-73
2021/01/06 09:15:53;;;;;;;16.27;11.15;;;3.20;93.90;;;;;;5106179;28;20051;-73
2021/01/06 09:18:38;;;;;;;12.70;9.80;;;3.10;93.70;;;;;;5103151;28;20051;-73
2021/01/06 09:21:21;;;;;;;13.87;9.33;;;3.20;94.10;;;;;;5106201;28;20039;-73
2021/01/06 09:23:54;;;;;;;15.93;10.47;;;3.20;93.70;;;;;;5087173;28;20032;-73
2021/01/06 09:26:24;;;;;;;13.73;9.48;;;3.30;93.70;;;;;;5087585;28;20036;-73
2021/01/06 09:29:07;;;;;;;15.37;11.57;;;3.30;93.80;;;;;;5069434;28;20032;-73
2021/01/06 09:31:39;;;;;;;16.05;11.13;;;3.30;93.70;;;;;;5086800;28;20032;-73
2021/01/06 09:34:07;;;;;;;15.53;10.77;;;3.40;93.80;;;;;;5106419;27;20526;-79
2021/01/06 09:36:34;;;;;;;14.43;10.33;;;3.40;93.50;;;;;;5070305;28;20028;-79
2021/01/06 09:39:05;;;;;;;13.43;10.27;;;3.40;93.40;;;;;;5105717;27;20055;-78
2021/01/06 09:41:33;;;;;;;15.63;10.43;;;3.40;93.60;;;;;;5104423;28;20517;-78
2021/01/06 09:44:03;;;;;;;15.37;11.13;;;3.40;93.60;;;;;;5106871;27;20486;-78
2021/01/06 09:46:50;;;;;;;14.90;9.17;;;3.50;93.60;;;;;;5105469;28;20114;-78
2021/01/06 09:49:23;;;;;;;17.13;10.37;;;3.50;93.40;;;;;;5101753;28;20516;-73
2021/01/06 09:51:53;;;;;;;;;;;3.50;93.20;;;;;;5104344;28;20039;-73
2021/01/06 09:54:20;;;;;;;14.30;9.80;;;3.50;93.10;;;;;;5069690;28;19912;-73
2021/01/06 09:56:47;;;;;;;16.13;10.53;;;3.50;93.20;;;;;;5104604;28;20046;-73
2021/01/06 09:59:23;;;;;;;15.93;10.37;;;3.60;93.00;;;;;;5104364;28;20042;-73
2021/01/06 10:01:52;;;;;;;15.20;10.13;;;3.50;92.90;;;;;;5105106;28;20051;-73
2021/01/06 10:04:23;;;;;;;19.53;11.60;;;3.50;93.00;;;;;;5104657;28;20024;-73
2021/01/06 10:06:52;;;;;;;15.53;10.40;;;3.50;92.80;;;;;;5087220;28;20039;-73
2021/01/06 10:09:36;;;;;;;16.77;10.57;;;3.60;92.90;;;;;;5103868;28;20040;-73
2021/01/06 10:12:05;;;;;;;15.60;10.70;;;3.60;93.00;;;;;;5110338;27;20046;-73
2021/01/06 10:15:00;;;;;;;15.83;10.50;;;3.60;92.90;;;;;;5125152;27;20045;-73
2021/01/06 10:17:32;;;;;;;14.93;10.53;;;3.70;92.90;;;;;;5091539;27;20039;-79
2021/01/06 10:20:05;;;;;;;14.57;9.32;;;3.70;92.90;;;;;;5124807;27;20030;-79
2021/01/06 10:22:37;;;;;;;16.03;9.33;;;3.70;92.90;;;;;;5125545;27;20485;-78
2021/01/06 10:25:09;;;;;;;13.02;9.48;;;3.70;92.90;;;;;;5105144;27;20035;-79
2021/01/06 10:27:40;;;;;;;15.05;9.82;;;3.70;92.70;;;;;;5124113;27;20494;-78
2021/01/06 10:30:14;;;;;;;14.03;9.93;;;3.80;92.40;;;;;;5104118;27;20046;-79
2021/01/06 10:32:44;;;;;;;13.77;8.33;;;3.80;92.50;;;;;;5125932;27;20035;-79
2021/01/06 10:35:32;;;;;;;11.47;8.80;;;3.80;92.50;;;;;;5107747;27;20037;-79
2021/01/06 10:38:28;;;;;;;14.00;8.97;;;3.80;92.40;;;;;;5090345;27;20418;-79
2021/01/06 10:41:20;;;;;;;14.00;9.00;;;3.80;92.50;;;;;;5106995;27;20031;-79
2021/01/06 10:43:49;;;;;;;15.30;8.45;;;3.80;92.30;;;;;;5125364;27;20031;-79
2021/01/06 10:46:40;;;;;;;12.60;9.07;;;3.80;92.40;;;;;;5124634;27;20483;-79
2021/01/06 10:49:19;;;;;;;13.00;8.67;;;3.80;92.30;;;;;;5103629;27;20045;-79
2021/01/06 10:52:00;;;;;;;9.57;7.27;;;3.90;92.20;;;;;;5123621;27;20043;-79
2021/01/06 10:54:38;;;;;;;11.53;7.40;;;3.80;92.20;;;;;;5104792;27;20050;-79
2021/01/06 10:57:25;;;;;;;12.53;7.70;;;3.90;92.20;;;;;;5107102;27;20035;-79
2021/01/06 11:00:25;;;;;;;11.37;7.73;;;3.80;92.10;;;;;;5122686;27;20050;-78
2021/01/06 11:03:23;;;;;;;11.43;7.10;;;3.90;92.10;;;;;;5124091;27;20046;-78
2021/01/06 11:05:52;;;;;;;9.73;6.27;;;3.90;92.20;;;;;;5088973;27;20442;-78
2021/01/06 11:08:37;;;;;;;10.13;6.77;;;3.90;92.20;;;;;;5104319;28;20039;-79
2021/01/06 11:11:27;;;;;;;13.10;7.60;;;3.90;92.10;;;;;;5070947;27;20039;-79
2021/01/06 11:14:15;;;;;;;11.27;6.83;;;3.90;92.10;;;;;;5124911;27;20049;-79
2021/01/06 11:16:56;;;;;;;9.27;5.47;;;4.00;92.10;;;;;;5107107;27;20046;-79
2021/01/06 11:19:44;;;;;;;11.57;5.87;;;4.00;92.00;;;;;;5103291;27;20043;-79
2021/01/06 11:22:30;;;;;;;10.03;6.40;;;4.00;92.10;;;;;;5103898;28;20050;-78
2021/01/06 11:25:41;;;;;;;10.57;5.60;;;4.00;91.90;;;;;;5106842;28;20485;-79
2021/01/06 11:28:22;;;;;;;9.47;6.13;;;4.00;91.60;;;;;;5114763;28;20038;-79
2021/01/06 11:31:22;;;;;;;8.00;5.13;;;4.00;91.50;;;;;;5105097;28;20039;-79
2021/01/06 11:33:53;;;;;;;13.07;5.97;;;4.00;91.70;;;;;;5106388;28;20035;-73
2021/01/06 11:36:47;;;;;;;10.67;5.77;;;4.10;91.60;;;;;;5108414;27;20038;-73
2021/01/06 11:39:36;;;;;;;10.03;4.93;;;4.10;91.50;;;;;;5106084;27;20520;-73
2021/01/06 11:42:11;;;;;;;7.70;4.90;;;4.10;91.30;;;;;;5091323;27;20043;-74
2021/01/06 11:44:46;;;;;;;9.63;5.00;;;4.20;91.50;;;;;;5093095;27;20043;-73
2021/01/06 11:47:40;;;;;;;8.60;5.40;;;4.20;91.70;;;;;;5090845;27;20047;-73
2021/01/06 11:50:27;;;;;;;6.93;4.70;;;4.20;91.50;;;;;;5125937;27;20035;-73
2021/01/06 11:53:17;;;;;;;8.27;4.40;;;4.30;91.40;;;;;;5127466;27;20063;-73
2021/01/06 11:56:04;;;;;;;8.30;4.57;;;4.30;91.50;;;;;;5127448;27;20397;-73
2021/01/06 11:59:01;;;;;;;7.13;3.90;;;4.30;91.40;;;;;;5106575;27;20438;-75
2021/01/06 12:01:39;;;;;;;5.07;4.10;;;4.40;91.30;;;;;;5092623;27;20375;-73
2021/01/06 12:04:14;;;;;;;5.33;3.50;;;4.30;91.30;;;;;;5127195;27;20039;-73
2021/01/06 12:06:55;;;;;;;6.00;3.67;;;4.40;91.40;;;;;;5109504;27;20615;-73
2021/01/06 12:09:53;;;;;;;5.93;3.90;;;4.40;91.30;;;;;;5090797;27;20412;-73
2021/01/06 12:12:53;;;;;;;8.02;4.72;;;4.40;91.20;;;;;;5109280;27;20051;-73
2021/01/06 12:15:23;;;;;;;8.60;4.60;;;4.50;91.30;;;;;;5080916;27;20047;-73
2021/01/06 12:17:55;;;;;;;10.00;4.27;;;4.50;91.20;;;;;;5095731;27;20034;-73
2021/01/06 12:20:34;;;;;;;8.90;4.20;;;4.50;91.00;;;;;;5090737;27;20046;-74
2021/01/06 12:23:15;;;;;;;8.10;4.50;;;4.50;91.10;;;;;;5106600;27;20054;-73
2021/01/06 12:25:49;;;;;;;5.88;3.22;;;4.50;90.80;;;;;;5125813;27;20035;-73
2021/01/06 12:28:48;;;;;;;7.70;4.03;;;4.50;90.90;;;;;;5107288;27;20497;-73
2021/01/06 12:31:38;;;;;;;8.70;3.90;;;4.50;90.80;;;;;;5109369;27;20031;-73
2021/01/06 12:34:14;;;;;;;9.37;4.03;;;4.50;90.80;;;;;;5125454;27;20027;-73
2021/01/06 12:37:11;;;;;;;6.03;2.80;;;4.50;90.90;;;;;;5107801;27;20043;-73
2021/01/06 12:39:42;;;;;;;6.57;2.90;;;4.60;90.80;;;;;;5107133;27;20046;-73
2021/01/06 12:42:18;;;;;;;7.43;3.30;;;4.60;90.70;;;;;;5107266;27;20027;-73
2021/01/06 12:45:13;;;;;;;5.33;3.07;;;4.60;90.60;;;;;;5107582;27;20042;-73
2021/01/06 12:47:54;;;;;;;7.57;3.20;;;4.60;90.10;;;;;;5096681;27;20050;-73
2021/01/06 12:50:27;;;;;;;5.20;2.83;;;4.50;90.20;;;;;;5125381;27;20505;-73
2021/01/06 12:53:08;;;;;;;5.35;2.42;;;4.50;90.30;;;;;;5127433;27;20050;-74
2021/01/06 12:56:04;;;;;;;4.07;2.30;;;4.50;90.40;;;;;;5109146;27;20031;-73
2021/01/06 12:58:44;;;;;;;7.47;2.92;;;4.50;90.30;;;;;;5070768;27;20134;-73
2021/01/06 13:01:40;;;;;;;4.17;2.40;;;4.50;90.50;;;;;;5108336;27;20465;-73
2021/01/06 13:04:09;;;;;;;4.82;2.70;;;4.50;90.30;;;;;;5108024;27;20042;-73
2021/01/06 13:06:43;;;;;;;4.63;2.40;;;4.50;90.40;;;;;;5090953;27;20492;-74
2021/01/06 13:09:26;;;;;;;4.15;1.90;;;4.50;90.30;;;;;;5106389;27;20946;-74
2021/01/06 13:12:10;;;;;;;4.77;2.73;;;4.50;90.40;;;;;;5126519;27;20047;-73
2021/01/06 13:14:53;;;;;;;3.97;2.13;;;4.50;90.30;;;;;;5127410;27;20489;-73
2021/01/06 13:17:27;;;;;;;7.17;2.73;;;4.40;90.40;;;;;;5126167;27;20042;-73
2021/01/06 13:19:59;;;;;;;8.27;2.60;;;4.50;90.40;;;;;;5123737;27;20047;-73
2021/01/06 13:22:42;;;;;;;5.72;1.38;;;4.50;90.40;;;;;;5095683;27;20508;-73
2021/01/06 13:25:20;;;;;;;8.07;2.58;;;4.50;90.50;;;;;;5106935;27;20035;-73
2021/01/06 13:27:52;;;;;;;4.07;2.63;;;4.50;90.40;;;;;;5091606;27;20035;-73
2021/01/06 13:30:34;;;;;;;4.55;1.98;;;4.50;90.10;;;;;;5124349;27;20486;-74
2021/01/06 13:33:26;;;;;;;5.27;1.77;;;4.50;90.20;;;;;;5125037;27;20405;-74